sensor_id;sensor_type;location;lat;lon;timestamp;P1;durP1;ratioP1;P2;durP2;ratioP2
43150;SDS011;28755;51.478;5.702;2023-12-14T00:01:40;31.73;;;20.35;;
43150;SDS011;28755;51.478;5.702;2023-12-14T00:04:06;31.92;;;20.73;;
43150;SDS011;28755;51.478;5.702;2023-12-14T00:06:32;30.83;;;20.67;;
43150;SDS011;28755;51.478;5.702;2023-12-14T00:08:58;34.97;;;22.58;;
43150;SDS011;28755;51.478;5.702;2023-12-14T00:11:23;31.02;;;19.48;;
43150;SDS011;28755;51.478;5.702;2023-12-14T00:13:49;30.10;;;18.42;;
43150;SDS011;28755;51.478;5.702;2023-12-14T00:16:15;30.48;;;18.58;;
43150;SDS011;28755;51.478;5.702;2023-12-14T00:18:40;30.33;;;19.48;;
43150;SDS011;28755;51.478;5.702;2023-12-14T00:21:06;30.35;;;18.85;;
43150;SDS011;28755;51.478;5.702;2023-12-14T00:23:33;29.90;;;18.77;;
43150;SDS011;28755;51.478;5.702;2023-12-14T00:25:59;27.63;;;16.25;;
43150;SDS011;28755;51.478;5.702;2023-12-14T00:28:25;27.48;;;17.58;;
43150;SDS011;28755;51.478;5.702;2023-12-14T00:30:50;27.80;;;16.70;;
43150;SDS011;28755;51.478;5.702;2023-12-14T00:33:16;27.35;;;16.02;;
43150;SDS011;28755;51.478;5.702;2023-12-14T00:35:41;24.48;;;15.95;;
43150;SDS011;28755;51.478;5.702;2023-12-14T00:38:07;24.70;;;14.90;;
43150;SDS011;28755;51.478;5.702;2023-12-14T00:40:32;26.15;;;15.13;;
43150;SDS011;28755;51.478;5.702;2023-12-14T00:42:58;25.23;;;15.10;;
43150;SDS011;28755;51.478;5.702;2023-12-14T00:45:24;24.70;;;15.45;;
43150;SDS011;28755;51.478;5.702;2023-12-14T00:47:49;23.77;;;14.52;;
43150;SDS011;28755;51.478;5.702;2023-12-14T00:50:15;23.33;;;13.95;;
43150;SDS011;28755;51.478;5.702;2023-12-14T00:52:40;27.55;;;15.35;;
43150;SDS011;28755;51.478;5.702;2023-12-14T00:55:06;27.35;;;16.38;;
43150;SDS011;28755;51.478;5.702;2023-12-14T00:57:32;29.52;;;16.42;;
43150;SDS011;28755;51.478;5.702;2023-12-14T00:59:57;30.88;;;17.05;;
43150;SDS011;28755;51.478;5.702;2023-12-14T01:02:23;29.45;;;17.13;;
43150;SDS011;28755;51.478;5.702;2023-12-14T01:04:48;29.45;;;17.25;;
43150;SDS011;28755;51.478;5.702;2023-12-14T01:07:14;32.05;;;17.95;;
43150;SDS011;28755;51.478;5.702;2023-12-14T01:09:39;28.15;;;16.65;;
43150;SDS011;28755;51.478;5.702;2023-12-14T01:12:05;29.98;;;17.52;;
43150;SDS011;28755;51.478;5.702;2023-12-14T01:14:31;29.33;;;16.42;;
43150;SDS011;28755;51.478;5.702;2023-12-14T01:16:57;29.42;;;16.98;;
43150;SDS011;28755;51.478;5.702;2023-12-14T01:19:22;28.33;;;15.73;;
43150;SDS011;28755;51.478;5.702;2023-12-14T01:21:50;26.52;;;15.60;;
43150;SDS011;28755;51.478;5.702;2023-12-14T01:24:15;25.40;;;14.88;;
43150;SDS011;28755;51.478;5.702;2023-12-14T01:26:41;27.98;;;16.80;;
43150;SDS011;28755;51.478;5.702;2023-12-14T01:29:07;29.45;;;16.67;;
43150;SDS011;28755;51.478;5.702;2023-12-14T01:31:32;28.02;;;16.20;;
43150;SDS011;28755;51.478;5.702;2023-12-14T01:33:58;28.30;;;16.58;;
43150;SDS011;28755;51.478;5.702;2023-12-14T01:36:24;27.52;;;16.95;;
43150;SDS011;28755;51.478;5.702;2023-12-14T01:38:50;26.42;;;16.73;;
43150;SDS011;28755;51.478;5.702;2023-12-14T01:41:17;29.02;;;16.90;;
43150;SDS011;28755;51.478;5.702;2023-12-14T01:43:43;30.75;;;17.35;;
43150;SDS011;28755;51.478;5.702;2023-12-14T01:46:09;31.35;;;16.70;;
43150;SDS011;28755;51.478;5.702;2023-12-14T01:48:35;31.50;;;17.23;;
43150;SDS011;28755;51.478;5.702;2023-12-14T01:51:01;31.35;;;18.52;;
43150;SDS011;28755;51.478;5.702;2023-12-14T01:53:27;28.73;;;16.92;;
43150;SDS011;28755;51.478;5.702;2023-12-14T01:55:52;29.48;;;17.45;;
43150;SDS011;28755;51.478;5.702;2023-12-14T01:58:18;29.38;;;16.90;;
43150;SDS011;28755;51.478;5.702;2023-12-14T02:03:29;30.10;;;16.85;;
43150;SDS011;28755;51.478;5.702;2023-12-14T02:05:55;30.10;;;17.58;;
43150;SDS011;28755;51.478;5.702;2023-12-14T02:08:22;30.52;;;17.58;;
43150;SDS011;28755;51.478;5.702;2023-12-14T02:10:49;28.17;;;16.58;;
43150;SDS011;28755;51.478;5.702;2023-12-14T02:13:14;30.15;;;17.95;;
43150;SDS011;28755;51.478;5.702;2023-12-14T02:15:40;30.38;;;17.02;;
43150;SDS011;28755;51.478;5.702;2023-12-14T02:18:06;29.73;;;17.52;;
43150;SDS011;28755;51.478;5.702;2023-12-14T02:20:32;28.90;;;16.88;;
43150;SDS011;28755;51.478;5.702;2023-12-14T02:22:58;30.65;;;17.75;;
43150;SDS011;28755;51.478;5.702;2023-12-14T02:25:24;28.88;;;17.30;;
43150;SDS011;28755;51.478;5.702;2023-12-14T02:27:50;28.48;;;16.00;;
43150;SDS011;28755;51.478;5.702;2023-12-14T02:30:16;26.85;;;15.60;;
43150;SDS011;28755;51.478;5.702;2023-12-14T02:32:42;26.83;;;15.50;;
43150;SDS011;28755;51.478;5.702;2023-12-14T02:35:08;26.17;;;15.65;;
43150;SDS011;28755;51.478;5.702;2023-12-14T02:37:34;25.83;;;16.08;;
43150;SDS011;28755;51.478;5.702;2023-12-14T02:40:05;27.67;;;15.73;;
43150;SDS011;28755;51.478;5.702;2023-12-14T02:42:32;26.92;;;15.50;;
43150;SDS011;28755;51.478;5.702;2023-12-14T02:44:58;28.63;;;15.82;;
43150;SDS011;28755;51.478;5.702;2023-12-14T02:47:24;26.73;;;15.40;;
43150;SDS011;28755;51.478;5.702;2023-12-14T02:49:49;26.73;;;15.18;;
43150;SDS011;28755;51.478;5.702;2023-12-14T02:52:15;26.92;;;14.90;;
43150;SDS011;28755;51.478;5.702;2023-12-14T02:54:40;26.65;;;15.63;;
43150;SDS011;28755;51.478;5.702;2023-12-14T02:57:06;25.55;;;14.95;;
43150;SDS011;28755;51.478;5.702;2023-12-14T02:59:32;27.17;;;14.95;;
43150;SDS011;28755;51.478;5.702;2023-12-14T03:01:58;25.60;;;14.98;;
43150;SDS011;28755;51.478;5.702;2023-12-14T03:04:24;25.95;;;14.35;;
43150;SDS011;28755;51.478;5.702;2023-12-14T03:06:50;28.25;;;14.85;;
43150;SDS011;28755;51.478;5.702;2023-12-14T03:09:15;25.55;;;14.73;;
43150;SDS011;28755;51.478;5.702;2023-12-14T03:11:41;29.42;;;15.75;;
43150;SDS011;28755;51.478;5.702;2023-12-14T03:14:07;32.85;;;16.75;;
43150;SDS011;28755;51.478;5.702;2023-12-14T03:16:32;31.75;;;17.20;;
43150;SDS011;28755;51.478;5.702;2023-12-14T03:19:00;33.10;;;16.95;;
43150;SDS011;28755;51.478;5.702;2023-12-14T03:21:26;33.63;;;18.85;;
43150;SDS011;28755;51.478;5.702;2023-12-14T03:23:51;31.80;;;17.98;;
43150;SDS011;28755;51.478;5.702;2023-12-14T03:26:17;35.15;;;19.50;;
43150;SDS011;28755;51.478;5.702;2023-12-14T03:28:43;32.75;;;19.20;;
43150;SDS011;28755;51.478;5.702;2023-12-14T03:31:11;36.72;;;19.23;;
43150;SDS011;28755;51.478;5.702;2023-12-14T03:33:38;31.50;;;19.17;;
43150;SDS011;28755;51.478;5.702;2023-12-14T03:36:04;34.40;;;19.55;;
43150;SDS011;28755;51.478;5.702;2023-12-14T03:38:30;36.83;;;18.88;;
43150;SDS011;28755;51.478;5.702;2023-12-14T03:40:56;33.45;;;18.67;;
43150;SDS011;28755;51.478;5.702;2023-12-14T03:43:21;38.63;;;20.50;;
43150;SDS011;28755;51.478;5.702;2023-12-14T03:45:47;34.22;;;19.60;;
43150;SDS011;28755;51.478;5.702;2023-12-14T03:48:13;35.90;;;20.27;;
43150;SDS011;28755;51.478;5.702;2023-12-14T03:50:38;33.40;;;19.17;;
43150;SDS011;28755;51.478;5.702;2023-12-14T03:53:04;34.03;;;19.50;;
43150;SDS011;28755;51.478;5.702;2023-12-14T03:55:29;33.65;;;19.17;;
43150;SDS011;28755;51.478;5.702;2023-12-14T03:57:55;33.80;;;19.52;;
43150;SDS011;28755;51.478;5.702;2023-12-14T04:00:21;31.25;;;19.13;;
43150;SDS011;28755;51.478;5.702;2023-12-14T04:02:46;30.75;;;17.73;;
43150;SDS011;28755;51.478;5.702;2023-12-14T04:05:12;30.98;;;18.15;;
43150;SDS011;28755;51.478;5.702;2023-12-14T04:07:38;33.10;;;19.15;;
43150;SDS011;28755;51.478;5.702;2023-12-14T04:10:08;32.92;;;18.33;;
43150;SDS011;28755;51.478;5.702;2023-12-14T04:12:37;31.40;;;18.33;;
43150;SDS011;28755;51.478;5.702;2023-12-14T04:15:04;29.90;;;16.92;;
43150;SDS011;28755;51.478;5.702;2023-12-14T04:17:31;27.88;;;17.27;;
43150;SDS011;28755;51.478;5.702;2023-12-14T04:19:57;31.15;;;18.17;;
43150;SDS011;28755;51.478;5.702;2023-12-14T04:22:23;32.60;;;18.13;;
43150;SDS011;28755;51.478;5.702;2023-12-14T04:24:50;28.83;;;17.92;;
43150;SDS011;28755;51.478;5.702;2023-12-14T04:27:16;27.80;;;17.63;;
43150;SDS011;28755;51.478;5.702;2023-12-14T04:29:41;30.52;;;18.30;;
43150;SDS011;28755;51.478;5.702;2023-12-14T04:32:07;33.25;;;19.92;;
43150;SDS011;28755;51.478;5.702;2023-12-14T04:34:33;32.40;;;18.98;;
43150;SDS011;28755;51.478;5.702;2023-12-14T04:36:58;29.85;;;19.25;;
43150;SDS011;28755;51.478;5.702;2023-12-14T04:39:24;31.85;;;19.17;;
43150;SDS011;28755;51.478;5.702;2023-12-14T04:41:50;32.63;;;19.23;;
43150;SDS011;28755;51.478;5.702;2023-12-14T04:44:17;33.42;;;18.17;;
43150;SDS011;28755;51.478;5.702;2023-12-14T04:46:46;32.13;;;19.08;;
43150;SDS011;28755;51.478;5.702;2023-12-14T04:49:15;27.67;;;18.17;;
43150;SDS011;28755;51.478;5.702;2023-12-14T04:51:41;29.83;;;18.85;;
43150;SDS011;28755;51.478;5.702;2023-12-14T04:54:07;30.17;;;18.48;;
43150;SDS011;28755;51.478;5.702;2023-12-14T04:56:33;29.98;;;18.65;;
43150;SDS011;28755;51.478;5.702;2023-12-14T04:58:59;27.85;;;17.40;;
43150;SDS011;28755;51.478;5.702;2023-12-14T05:01:25;30.40;;;18.75;;
43150;SDS011;28755;51.478;5.702;2023-12-14T05:03:54;29.63;;;19.20;;
43150;SDS011;28755;51.478;5.702;2023-12-14T05:06:20;30.67;;;18.52;;
43150;SDS011;28755;51.478;5.702;2023-12-14T05:08:46;28.58;;;17.50;;
43150;SDS011;28755;51.478;5.702;2023-12-14T05:11:12;30.05;;;17.98;;
43150;SDS011;28755;51.478;5.702;2023-12-14T05:13:38;31.17;;;17.90;;
43150;SDS011;28755;51.478;5.702;2023-12-14T05:16:04;30.48;;;17.83;;
43150;SDS011;28755;51.478;5.702;2023-12-14T05:18:30;27.40;;;17.77;;
43150;SDS011;28755;51.478;5.702;2023-12-14T05:20:56;26.67;;;17.27;;
43150;SDS011;28755;51.478;5.702;2023-12-14T05:23:21;27.08;;;17.58;;
43150;SDS011;28755;51.478;5.702;2023-12-14T05:25:48;30.00;;;17.95;;
43150;SDS011;28755;51.478;5.702;2023-12-14T05:28:14;29.63;;;18.15;;
43150;SDS011;28755;51.478;5.702;2023-12-14T05:30:40;26.98;;;16.25;;
43150;SDS011;28755;51.478;5.702;2023-12-14T05:33:06;29.90;;;18.30;;
43150;SDS011;28755;51.478;5.702;2023-12-14T05:35:32;30.45;;;16.80;;
43150;SDS011;28755;51.478;5.702;2023-12-14T05:37:58;28.70;;;17.77;;
43150;SDS011;28755;51.478;5.702;2023-12-14T05:40:23;27.08;;;17.60;;
43150;SDS011;28755;51.478;5.702;2023-12-14T05:42:49;27.10;;;17.20;;
43150;SDS011;28755;51.478;5.702;2023-12-14T05:45:15;25.60;;;17.17;;
43150;SDS011;28755;51.478;5.702;2023-12-14T05:47:40;27.05;;;17.90;;
43150;SDS011;28755;51.478;5.702;2023-12-14T05:50:09;28.02;;;17.20;;
43150;SDS011;28755;51.478;5.702;2023-12-14T05:56:36;25.20;;;16.58;;
43150;SDS011;28755;51.478;5.702;2023-12-14T05:59:01;23.60;;;16.13;;
43150;SDS011;28755;51.478;5.702;2023-12-14T06:01:27;24.15;;;16.20;;
43150;SDS011;28755;51.478;5.702;2023-12-14T06:03:52;25.13;;;16.38;;
43150;SDS011;28755;51.478;5.702;2023-12-14T06:06:18;23.20;;;16.38;;
43150;SDS011;28755;51.478;5.702;2023-12-14T06:08:44;23.73;;;16.15;;
43150;SDS011;28755;51.478;5.702;2023-12-14T06:11:09;25.42;;;16.52;;
43150;SDS011;28755;51.478;5.702;2023-12-14T06:13:35;23.50;;;15.85;;
43150;SDS011;28755;51.478;5.702;2023-12-14T06:16:01;26.30;;;16.60;;
43150;SDS011;28755;51.478;5.702;2023-12-14T06:18:27;26.27;;;16.70;;
43150;SDS011;28755;51.478;5.702;2023-12-14T06:20:53;27.23;;;17.27;;
43150;SDS011;28755;51.478;5.702;2023-12-14T06:23:18;27.23;;;17.52;;
43150;SDS011;28755;51.478;5.702;2023-12-14T06:25:44;27.05;;;17.75;;
43150;SDS011;28755;51.478;5.702;2023-12-14T06:28:10;27.73;;;19.00;;
43150;SDS011;28755;51.478;5.702;2023-12-14T06:30:35;31.20;;;19.05;;
43150;SDS011;28755;51.478;5.702;2023-12-14T06:33:01;25.95;;;18.00;;
43150;SDS011;28755;51.478;5.702;2023-12-14T06:35:27;30.73;;;19.23;;
43150;SDS011;28755;51.478;5.702;2023-12-14T06:37:52;27.02;;;18.85;;
43150;SDS011;28755;51.478;5.702;2023-12-14T06:40:18;28.77;;;18.63;;
43150;SDS011;28755;51.478;5.702;2023-12-14T06:42:44;27.35;;;18.95;;
43150;SDS011;28755;51.478;5.702;2023-12-14T06:45:10;28.42;;;19.00;;
43150;SDS011;28755;51.478;5.702;2023-12-14T06:47:35;30.38;;;19.30;;
43150;SDS011;28755;51.478;5.702;2023-12-14T06:50:01;27.08;;;19.10;;
43150;SDS011;28755;51.478;5.702;2023-12-14T06:52:27;27.95;;;18.77;;
43150;SDS011;28755;51.478;5.702;2023-12-14T06:54:52;28.58;;;18.75;;
43150;SDS011;28755;51.478;5.702;2023-12-14T06:57:18;26.77;;;18.52;;
43150;SDS011;28755;51.478;5.702;2023-12-14T06:59:43;26.95;;;18.05;;
43150;SDS011;28755;51.478;5.702;2023-12-14T07:02:09;30.48;;;19.17;;
43150;SDS011;28755;51.478;5.702;2023-12-14T07:04:35;29.05;;;19.45;;
43150;SDS011;28755;51.478;5.702;2023-12-14T07:07:00;29.20;;;18.92;;
43150;SDS011;28755;51.478;5.702;2023-12-14T07:09:26;27.25;;;18.77;;
43150;SDS011;28755;51.478;5.702;2023-12-14T07:11:52;29.02;;;19.42;;
43150;SDS011;28755;51.478;5.702;2023-12-14T07:14:18;32.30;;;19.48;;
43150;SDS011;28755;51.478;5.702;2023-12-14T07:16:44;25.42;;;18.45;;
43150;SDS011;28755;51.478;5.702;2023-12-14T07:19:10;26.65;;;18.55;;
43150;SDS011;28755;51.478;5.702;2023-12-14T07:21:36;28.45;;;19.02;;
43150;SDS011;28755;51.478;5.702;2023-12-14T07:24:02;30.13;;;19.67;;
43150;SDS011;28755;51.478;5.702;2023-12-14T07:26:27;26.40;;;18.10;;
43150;SDS011;28755;51.478;5.702;2023-12-14T07:28:53;28.88;;;18.65;;
43150;SDS011;28755;51.478;5.702;2023-12-14T07:31:19;26.70;;;18.48;;
43150;SDS011;28755;51.478;5.702;2023-12-14T07:33:45;26.15;;;18.67;;
43150;SDS011;28755;51.478;5.702;2023-12-14T07:36:11;29.27;;;18.25;;
43150;SDS011;28755;51.478;5.702;2023-12-14T07:38:36;26.33;;;17.90;;
43150;SDS011;28755;51.478;5.702;2023-12-14T07:41:02;26.90;;;18.27;;
43150;SDS011;28755;51.478;5.702;2023-12-14T07:43:28;27.63;;;18.40;;
43150;SDS011;28755;51.478;5.702;2023-12-14T07:45:54;26.85;;;18.30;;
43150;SDS011;28755;51.478;5.702;2023-12-14T07:48:19;28.52;;;18.73;;
43150;SDS011;28755;51.478;5.702;2023-12-14T07:50:45;25.75;;;18.05;;
43150;SDS011;28755;51.478;5.702;2023-12-14T07:53:11;25.92;;;18.05;;
43150;SDS011;28755;51.478;5.702;2023-12-14T07:55:37;24.27;;;17.70;;
43150;SDS011;28755;51.478;5.702;2023-12-14T07:58:02;27.15;;;17.77;;
43150;SDS011;28755;51.478;5.702;2023-12-14T08:00:28;23.95;;;17.02;;
43150;SDS011;28755;51.478;5.702;2023-12-14T08:02:53;26.30;;;16.95;;
43150;SDS011;28755;51.478;5.702;2023-12-14T08:05:19;27.92;;;17.60;;
43150;SDS011;28755;51.478;5.702;2023-12-14T08:07:45;26.52;;;17.00;;
43150;SDS011;28755;51.478;5.702;2023-12-14T08:10:10;28.92;;;17.00;;
43150;SDS011;28755;51.478;5.702;2023-12-14T08:12:36;26.42;;;17.35;;
43150;SDS011;28755;51.478;5.702;2023-12-14T08:15:02;26.02;;;17.45;;
43150;SDS011;28755;51.478;5.702;2023-12-14T08:17:28;27.13;;;17.70;;
43150;SDS011;28755;51.478;5.702;2023-12-14T08:19:54;29.33;;;18.20;;
43150;SDS011;28755;51.478;5.702;2023-12-14T08:22:19;28.00;;;17.25;;
43150;SDS011;28755;51.478;5.702;2023-12-14T08:24:46;25.98;;;16.65;;
43150;SDS011;28755;51.478;5.702;2023-12-14T08:27:12;28.55;;;17.98;;
43150;SDS011;28755;51.478;5.702;2023-12-14T08:29:38;29.05;;;18.08;;
43150;SDS011;28755;51.478;5.702;2023-12-14T08:32:04;28.23;;;18.38;;
43150;SDS011;28755;51.478;5.702;2023-12-14T08:34:30;25.42;;;16.48;;
43150;SDS011;28755;51.478;5.702;2023-12-14T08:36:55;25.02;;;16.67;;
43150;SDS011;28755;51.478;5.702;2023-12-14T08:39:21;27.08;;;17.80;;
43150;SDS011;28755;51.478;5.702;2023-12-14T08:41:47;29.08;;;18.40;;
43150;SDS011;28755;51.478;5.702;2023-12-14T08:44:14;30.75;;;19.27;;
43150;SDS011;28755;51.478;5.702;2023-12-14T08:46:40;31.10;;;19.10;;
43150;SDS011;28755;51.478;5.702;2023-12-14T08:49:07;29.02;;;18.20;;
43150;SDS011;28755;51.478;5.702;2023-12-14T08:51:33;25.30;;;17.00;;
43150;SDS011;28755;51.478;5.702;2023-12-14T08:53:59;28.65;;;18.13;;
43150;SDS011;28755;51.478;5.702;2023-12-14T08:56:24;29.00;;;18.55;;
43150;SDS011;28755;51.478;5.702;2023-12-14T08:58:50;29.38;;;18.83;;
43150;SDS011;28755;51.478;5.702;2023-12-14T09:01:19;28.75;;;17.98;;
43150;SDS011;28755;51.478;5.702;2023-12-14T09:06:11;30.15;;;17.83;;
43150;SDS011;28755;51.478;5.702;2023-12-14T09:08:37;29.08;;;18.90;;
43150;SDS011;28755;51.478;5.702;2023-12-14T09:11:04;30.42;;;17.45;;
43150;SDS011;28755;51.478;5.702;2023-12-14T09:13:30;26.25;;;16.65;;
43150;SDS011;28755;51.478;5.702;2023-12-14T09:15:56;24.60;;;15.80;;
43150;SDS011;28755;51.478;5.702;2023-12-14T09:18:21;29.10;;;17.02;;
43150;SDS011;28755;51.478;5.702;2023-12-14T09:20:48;24.98;;;15.13;;
43150;SDS011;28755;51.478;5.702;2023-12-14T09:23:14;22.17;;;14.13;;
43150;SDS011;28755;51.478;5.702;2023-12-14T09:25:41;28.20;;;14.45;;
43150;SDS011;28755;51.478;5.702;2023-12-14T09:28:06;27.42;;;14.55;;
43150;SDS011;28755;51.478;5.702;2023-12-14T09:30:32;23.15;;;13.95;;
43150;SDS011;28755;51.478;5.702;2023-12-14T09:32:58;21.42;;;14.38;;
43150;SDS011;28755;51.478;5.702;2023-12-14T09:35:24;21.17;;;13.07;;
43150;SDS011;28755;51.478;5.702;2023-12-14T09:37:49;19.60;;;13.63;;
43150;SDS011;28755;51.478;5.702;2023-12-14T09:40:15;23.40;;;13.52;;
43150;SDS011;28755;51.478;5.702;2023-12-14T09:42:41;23.08;;;12.88;;
43150;SDS011;28755;51.478;5.702;2023-12-14T09:45:08;22.15;;;14.07;;
43150;SDS011;28755;51.478;5.702;2023-12-14T09:47:35;22.45;;;12.77;;
43150;SDS011;28755;51.478;5.702;2023-12-14T09:50:02;21.85;;;12.45;;
43150;SDS011;28755;51.478;5.702;2023-12-14T09:52:28;20.60;;;12.90;;
43150;SDS011;28755;51.478;5.702;2023-12-14T09:54:54;23.80;;;13.55;;
43150;SDS011;28755;51.478;5.702;2023-12-14T09:57:20;20.40;;;13.35;;
43150;SDS011;28755;51.478;5.702;2023-12-14T09:59:55;20.35;;;13.05;;
43150;SDS011;28755;51.478;5.702;2023-12-14T10:02:24;19.05;;;12.02;;
43150;SDS011;28755;51.478;5.702;2023-12-14T10:04:52;20.00;;;12.02;;
43150;SDS011;28755;51.478;5.702;2023-12-14T10:07:18;22.25;;;12.50;;
43150;SDS011;28755;51.478;5.702;2023-12-14T10:09:45;17.35;;;12.18;;
43150;SDS011;28755;51.478;5.702;2023-12-14T10:12:10;20.02;;;12.48;;
43150;SDS011;28755;51.478;5.702;2023-12-14T10:14:36;20.90;;;12.00;;
43150;SDS011;28755;51.478;5.702;2023-12-14T10:17:19;18.75;;;12.60;;
43150;SDS011;28755;51.478;5.702;2023-12-14T10:19:46;20.63;;;13.07;;
43150;SDS011;28755;51.478;5.702;2023-12-14T10:22:17;21.10;;;12.43;;
43150;SDS011;28755;51.478;5.702;2023-12-14T10:24:43;18.60;;;12.50;;
43150;SDS011;28755;51.478;5.702;2023-12-14T10:27:09;16.73;;;12.15;;
43150;SDS011;28755;51.478;5.702;2023-12-14T10:29:39;17.95;;;12.13;;
43150;SDS011;28755;51.478;5.702;2023-12-14T10:32:06;17.75;;;12.00;;
43150;SDS011;28755;51.478;5.702;2023-12-14T10:34:34;16.98;;;11.65;;
43150;SDS011;28755;51.478;5.702;2023-12-14T10:37:01;17.35;;;11.90;;
43150;SDS011;28755;51.478;5.702;2023-12-14T10:39:29;16.88;;;11.70;;
43150;SDS011;28755;51.478;5.702;2023-12-14T10:41:56;17.95;;;11.02;;
43150;SDS011;28755;51.478;5.702;2023-12-14T10:44:25;20.08;;;11.50;;
43150;SDS011;28755;51.478;5.702;2023-12-14T10:46:55;16.77;;;11.30;;
43150;SDS011;28755;51.478;5.702;2023-12-14T10:49:25;16.60;;;11.00;;
43150;SDS011;28755;51.478;5.702;2023-12-14T10:51:52;18.55;;;12.02;;
43150;SDS011;28755;51.478;5.702;2023-12-14T10:54:20;17.02;;;12.10;;
43150;SDS011;28755;51.478;5.702;2023-12-14T10:56:48;16.30;;;11.50;;
43150;SDS011;28755;51.478;5.702;2023-12-14T10:59:16;17.63;;;11.32;;
43150;SDS011;28755;51.478;5.702;2023-12-14T11:01:42;16.60;;;10.15;;
43150;SDS011;28755;51.478;5.702;2023-12-14T11:04:08;13.77;;;10.38;;
43150;SDS011;28755;51.478;5.702;2023-12-14T11:06:38;20.23;;;11.50;;
43150;SDS011;28755;51.478;5.702;2023-12-14T11:09:05;16.67;;;10.40;;
43150;SDS011;28755;51.478;5.702;2023-12-14T11:11:42;14.48;;;10.88;;
43150;SDS011;28755;51.478;5.702;2023-12-14T11:14:22;16.90;;;10.60;;
43150;SDS011;28755;51.478;5.702;2023-12-14T11:16:48;14.27;;;10.60;;
43150;SDS011;28755;51.478;5.702;2023-12-14T11:24:21;15.02;;;10.75;;
43150;SDS011;28755;51.478;5.702;2023-12-14T11:26:51;16.45;;;10.63;;
43150;SDS011;28755;51.478;5.702;2023-12-14T11:29:17;17.80;;;11.23;;
43150;SDS011;28755;51.478;5.702;2023-12-14T11:31:44;15.50;;;10.45;;
43150;SDS011;28755;51.478;5.702;2023-12-14T11:34:10;18.20;;;11.68;;
43150;SDS011;28755;51.478;5.702;2023-12-14T11:36:36;16.17;;;11.48;;
43150;SDS011;28755;51.478;5.702;2023-12-14T11:39:06;16.83;;;11.15;;
43150;SDS011;28755;51.478;5.702;2023-12-14T11:41:32;16.17;;;10.85;;
43150;SDS011;28755;51.478;5.702;2023-12-14T11:43:59;15.23;;;9.48;;
43150;SDS011;28755;51.478;5.702;2023-12-14T11:46:24;19.58;;;11.30;;
43150;SDS011;28755;51.478;5.702;2023-12-14T11:48:50;16.98;;;10.60;;
43150;SDS011;28755;51.478;5.702;2023-12-14T11:51:16;16.05;;;10.48;;
43150;SDS011;28755;51.478;5.702;2023-12-14T11:53:46;15.38;;;9.43;;
43150;SDS011;28755;51.478;5.702;2023-12-14T11:56:13;13.73;;;9.90;;
43150;SDS011;28755;51.478;5.702;2023-12-14T11:58:43;16.17;;;10.73;;
43150;SDS011;28755;51.478;5.702;2023-12-14T12:01:13;14.75;;;9.55;;
43150;SDS011;28755;51.478;5.702;2023-12-14T12:03:40;17.55;;;9.98;;
43150;SDS011;28755;51.478;5.702;2023-12-14T12:06:05;16.50;;;10.55;;
43150;SDS011;28755;51.478;5.702;2023-12-14T12:08:31;15.90;;;9.82;;
43150;SDS011;28755;51.478;5.702;2023-12-14T12:11:06;16.10;;;10.38;;
43150;SDS011;28755;51.478;5.702;2023-12-14T12:13:34;14.77;;;10.57;;
43150;SDS011;28755;51.478;5.702;2023-12-14T12:15:59;15.05;;;10.45;;
43150;SDS011;28755;51.478;5.702;2023-12-14T12:18:25;16.63;;;10.13;;
43150;SDS011;28755;51.478;5.702;2023-12-14T12:20:51;16.70;;;10.93;;
43150;SDS011;28755;51.478;5.702;2023-12-14T12:23:18;18.25;;;10.90;;
43150;SDS011;28755;51.478;5.702;2023-12-14T12:25:44;17.20;;;11.48;;
43150;SDS011;28755;51.478;5.702;2023-12-14T12:28:09;18.95;;;11.27;;
43150;SDS011;28755;51.478;5.702;2023-12-14T12:30:35;15.50;;;11.23;;
43150;SDS011;28755;51.478;5.702;2023-12-14T12:33:01;15.85;;;10.30;;
43150;SDS011;28755;51.478;5.702;2023-12-14T12:35:26;16.67;;;11.55;;
43150;SDS011;28755;51.478;5.702;2023-12-14T12:37:55;14.88;;;10.35;;
43150;SDS011;28755;51.478;5.702;2023-12-14T12:40:21;13.48;;;10.40;;
43150;SDS011;28755;51.478;5.702;2023-12-14T12:42:48;15.75;;;10.25;;
43150;SDS011;28755;51.478;5.702;2023-12-14T12:45:15;14.43;;;10.10;;
43150;SDS011;28755;51.478;5.702;2023-12-14T12:47:47;14.63;;;10.20;;
43150;SDS011;28755;51.478;5.702;2023-12-14T12:50:13;13.13;;;9.07;;
43150;SDS011;28755;51.478;5.702;2023-12-14T12:52:39;12.35;;;9.05;;
43150;SDS011;28755;51.478;5.702;2023-12-14T12:55:05;12.50;;;9.05;;
43150;SDS011;28755;51.478;5.702;2023-12-14T12:57:32;13.60;;;9.32;;
43150;SDS011;28755;51.478;5.702;2023-12-14T12:59:58;14.13;;;9.60;;
43150;SDS011;28755;51.478;5.702;2023-12-14T13:02:23;15.30;;;9.70;;
43150;SDS011;28755;51.478;5.702;2023-12-14T13:04:49;19.05;;;9.63;;
43150;SDS011;28755;51.478;5.702;2023-12-14T13:07:15;13.18;;;9.10;;
43150;SDS011;28755;51.478;5.702;2023-12-14T13:09:41;15.55;;;9.27;;
43150;SDS011;28755;51.478;5.702;2023-12-14T13:12:07;15.13;;;9.52;;
43150;SDS011;28755;51.478;5.702;2023-12-14T13:14:33;13.40;;;9.13;;
43150;SDS011;28755;51.478;5.702;2023-12-14T13:16:58;13.77;;;9.18;;
43150;SDS011;28755;51.478;5.702;2023-12-14T13:19:24;13.88;;;10.13;;
43150;SDS011;28755;51.478;5.702;2023-12-14T13:21:51;14.68;;;10.55;;
43150;SDS011;28755;51.478;5.702;2023-12-14T13:24:16;15.90;;;10.73;;
43150;SDS011;28755;51.478;5.702;2023-12-14T13:26:42;15.18;;;10.88;;
43150;SDS011;28755;51.478;5.702;2023-12-14T13:29:08;14.98;;;9.85;;
43150;SDS011;28755;51.478;5.702;2023-12-14T13:31:33;16.05;;;10.43;;
43150;SDS011;28755;51.478;5.702;2023-12-14T13:33:59;17.10;;;10.32;;
43150;SDS011;28755;51.478;5.702;2023-12-14T13:36:25;12.88;;;10.27;;
43150;SDS011;28755;51.478;5.702;2023-12-14T13:38:50;16.63;;;10.52;;
43150;SDS011;28755;51.478;5.702;2023-12-14T13:41:16;14.65;;;9.82;;
43150;SDS011;28755;51.478;5.702;2023-12-14T13:43:41;16.42;;;10.77;;
43150;SDS011;28755;51.478;5.702;2023-12-14T13:46:08;14.65;;;9.80;;
43150;SDS011;28755;51.478;5.702;2023-12-14T13:48:34;13.95;;;10.55;;
43150;SDS011;28755;51.478;5.702;2023-12-14T13:51:00;14.27;;;9.63;;
43150;SDS011;28755;51.478;5.702;2023-12-14T13:53:25;12.75;;;8.80;;
43150;SDS011;28755;51.478;5.702;2023-12-14T13:55:51;12.02;;;9.23;;
43150;SDS011;28755;51.478;5.702;2023-12-14T13:58:16;15.98;;;8.95;;
43150;SDS011;28755;51.478;5.702;2023-12-14T14:00:43;14.48;;;9.05;;
43150;SDS011;28755;51.478;5.702;2023-12-14T14:03:09;12.45;;;9.25;;
43150;SDS011;28755;51.478;5.702;2023-12-14T14:05:35;12.60;;;9.13;;
43150;SDS011;28755;51.478;5.702;2023-12-14T14:08:00;15.98;;;10.10;;
43150;SDS011;28755;51.478;5.702;2023-12-14T14:10:27;14.25;;;9.52;;
43150;SDS011;28755;51.478;5.702;2023-12-14T14:12:52;14.40;;;10.05;;
43150;SDS011;28755;51.478;5.702;2023-12-14T14:15:18;16.27;;;10.75;;
43150;SDS011;28755;51.478;5.702;2023-12-14T14:17:45;15.45;;;10.50;;
43150;SDS011;28755;51.478;5.702;2023-12-14T14:20:13;15.77;;;10.48;;
43150;SDS011;28755;51.478;5.702;2023-12-14T14:22:38;14.60;;;10.52;;
43150;SDS011;28755;51.478;5.702;2023-12-14T14:25:04;15.60;;;10.82;;
43150;SDS011;28755;51.478;5.702;2023-12-14T14:27:31;15.57;;;11.00;;
43150;SDS011;28755;51.478;5.702;2023-12-14T14:30:00;13.25;;;10.38;;
43150;SDS011;28755;51.478;5.702;2023-12-14T14:32:26;15.95;;;11.18;;